Time;durP1;ratioP1;P1;durP2;ratioP2;P2;SDS_P1;SDS_P2;PMS_P1;PMS_P2;Temp;Humidity;BMP_temperature;BMP_pressure;BME280_temperature;BME280_humidity;BME280_pressure;Samples;Min_cycle;Max_cycle;Signal;HPM_P1;HPM_P2
2023/12/07 00:01:44;;;;;;;12.70;12.00;;;4.40;89.00;;;;;;4972823;28;20220;-81
2023/12/07 00:04:12;;;;;;;14.40;13.40;;;4.30;26.70;;;;;;4975304;28;20553;-81
2023/12/07 00:06:41;;;;;;;13.20;12.30;;;4.30;22.60;;;;;;4973061;28;20258;-80
2023/12/07 00:09:09;;;;;;;14.55;13.40;;;4.40;17.20;;;;;;4976106;28;20209;-82
2023/12/07 00:11:39;;;;;;;13.82;12.93;;;4.30;10.70;;;;;;4977480;28;20231;-81
2023/12/07 00:14:07;;;;;;;12.68;11.88;;;4.30;1.00;;;;;;4975826;28;20224;-82
2023/12/07 00:16:35;;;;;;;17.10;15.55;;;4.30;1.00;;;;;;4973445;28;20201;-83
2023/12/07 00:19:03;;;;;;;16.67;15.38;;;4.30;1.00;;;;;;4975406;28;20210;-83
2023/12/07 00:21:32;;;;;;;15.60;14.40;;;4.30;1.00;;;;;;4970845;28;20197;-82
2023/12/07 00:24:01;;;;;;;16.08;14.48;;;4.30;1.00;;;;;;4976822;28;20866;-83
2023/12/07 00:26:29;;;;;;;14.45;13.13;;;4.30;1.00;;;;;;4974563;28;20655;-80
2023/12/07 00:28:58;;;;;;;14.93;13.70;;;4.30;1.00;;;;;;4974930;28;20223;-82
2023/12/07 00:31:27;;;;;;;14.68;13.43;;;4.30;1.00;;;;;;4976733;28;20690;-82
2023/12/07 00:33:55;;;;;;;14.32;13.13;;;4.30;1.00;;;;;;4976503;28;20322;-81
2023/12/07 00:36:23;;;;;;;14.25;13.10;;;4.30;1.00;;;;;;4974149;28;20227;-81
2023/12/07 00:38:51;;;;;;;15.15;13.95;;;4.30;1.00;;;;;;4972438;28;20228;-81
2023/12/07 00:41:20;;;;;;;14.80;13.85;;;4.30;1.00;;;;;;4975205;28;20235;-83
2023/12/07 00:43:48;;;;;;;13.85;12.85;;;4.30;9.40;;;;;;4973519;28;20199;-82
2023/12/07 00:46:18;;;;;;;14.35;13.32;;;4.30;25.20;;;;;;4974369;28;20795;-82
2023/12/07 00:48:46;;;;;;;14.43;13.23;;;4.20;63.70;;;;;;4974059;28;20227;-82
2023/12/07 00:51:15;;;;;;;13.50;12.70;;;4.20;77.10;;;;;;4975510;28;20224;-82
2023/12/07 00:53:43;;;;;;;14.45;13.55;;;4.20;66.20;;;;;;4975428;28;21008;-83
2023/12/07 00:56:11;;;;;;;15.02;13.82;;;4.20;70.30;;;;;;4977957;28;20901;-82
2023/12/07 00:58:39;;;;;;;13.75;12.85;;;4.20;93.10;;;;;;4976329;28;20243;-82
2023/12/07 01:01:08;;;;;;;13.35;12.40;;;4.20;80.60;;;;;;4977710;28;20279;-82
2023/12/07 01:03:40;;;;;;;12.95;12.00;;;4.20;54.20;;;;;;4979283;28;21088;-83
2023/12/07 01:06:09;;;;;;;12.43;11.57;;;4.20;7.40;;;;;;4975649;28;20267;-82
2023/12/07 01:08:38;;;;;;;13.02;12.20;;;4.20;1.00;;;;;;4980880;28;20239;-82
2023/12/07 01:11:06;;;;;;;12.50;11.80;;;4.30;1.00;;;;;;4975777;28;20314;-82
2023/12/07 01:13:35;;;;;;;12.32;11.60;;;4.30;1.00;;;;;;4975966;28;20234;-82
2023/12/07 01:16:04;;;;;;;13.57;12.73;;;4.30;1.00;;;;;;4976900;28;20823;-82
2023/12/07 01:18:32;;;;;;;13.02;12.23;;;4.30;10.50;;;;;;4976180;28;20314;-81
2023/12/07 01:21:02;;;;;;;13.38;12.45;;;4.20;20.50;;;;;;4978054;28;20580;-82
2023/12/07 01:23:31;;;;;;;15.02;13.88;;;4.10;20.50;;;;;;4972628;28;20208;-82
2023/12/07 01:26:02;;;;;;;12.57;11.98;;;4.10;81.90;;;;;;4972337;28;20700;-82
2023/12/07 01:28:31;;;;;;;13.90;13.00;;;4.10;87.30;;;;;;4972454;28;20761;-82
2023/12/07 01:30:59;;;;;;;13.70;12.60;;;4.10;58.00;;;;;;4972158;28;20327;-82
2023/12/07 01:33:27;;;;;;;13.32;12.52;;;4.10;85.70;;;;;;4970514;28;20208;-82
2023/12/07 01:35:55;;;;;;;13.18;12.40;;;4.10;97.50;;;;;;4974489;28;20200;-82
2023/12/07 01:38:25;;;;;;;13.30;12.32;;;4.10;98.30;;;;;;4971626;28;20242;-83
2023/12/07 01:40:53;;;;;;;12.60;12.00;;;4.10;99.10;;;;;;4973515;28;20203;-82
2023/12/07 01:43:24;;;;;;;13.40;12.50;;;4.10;94.50;;;;;;4972161;28;20914;-84
2023/12/07 01:45:53;;;;;;;13.68;12.68;;;4.00;93.90;;;;;;4970281;28;20278;-82
2023/12/07 01:48:22;;;;;;;12.70;11.70;;;4.00;97.30;;;;;;4975532;28;20761;-81
2023/12/07 01:50:52;;;;;;;13.43;12.40;;;4.00;56.10;;;;;;4972729;28;20200;-82
2023/12/07 01:53:22;;;;;;;11.52;10.73;;;3.90;57.40;;;;;;4973011;28;20564;-82
2023/12/07 01:55:52;;;;;;;12.88;11.75;;;3.90;49.20;;;;;;4972660;28;20201;-82
2023/12/07 01:58:21;;;;;;;11.88;11.27;;;3.90;39.40;;;;;;4973271;28;20223;-82
2023/12/07 02:00:50;;;;;;;13.50;12.63;;;3.90;49.60;;;;;;4975361;28;20208;-82
2023/12/07 02:03:18;;;;;;;11.90;11.15;;;3.90;71.00;;;;;;4973733;28;20678;-84
2023/12/07 02:05:49;;;;;;;11.70;11.00;;;3.90;49.80;;;;;;4969741;28;20962;-85
2023/12/07 02:08:18;;;;;;;11.70;10.73;;;3.90;27.20;;;;;;4974663;28;20212;-85
2023/12/07 02:10:46;;;;;;;11.95;10.98;;;3.90;35.60;;;;;;4974773;28;20199;-84
2023/12/07 02:13:15;;;;;;;12.07;11.38;;;3.90;61.00;;;;;;4972542;28;20875;-82
2023/12/07 02:15:44;;;;;;;11.18;10.35;;;3.90;41.00;;;;;;4970152;28;20430;-83
2023/12/07 02:18:17;;;;;;;10.48;9.80;;;3.90;40.50;;;;;;4969825;28;20235;-83
2023/12/07 02:20:51;;;;;;;11.35;10.75;;;3.90;20.50;;;;;;4973382;28;20289;-82
2023/12/07 02:23:20;;;;;;;10.98;10.35;;;3.90;1.00;;;;;;4970764;28;20188;-82
2023/12/07 02:26:09;;;;;;;11.60;10.65;;;3.90;5.80;;;;;;4972794;28;20212;-84
2023/12/07 02:28:39;;;;;;;12.05;11.35;;;3.90;12.00;;;;;;4976418;28;20227;-82
2023/12/07 02:31:08;;;;;;;15.52;11.90;;;3.90;9.10;;;;;;4976690;28;20266;-83
2023/12/07 02:33:36;;;;;;;11.30;10.57;;;3.90;25.90;;;;;;4978037;28;20199;-83
2023/12/07 02:36:06;;;;;;;11.98;11.27;;;3.90;20.60;;;;;;4972542;28;20199;-85
2023/12/07 02:38:35;;;;;;;10.95;10.35;;;3.90;59.60;;;;;;4971887;28;20230;-84
2023/12/07 02:41:04;;;;;;;11.85;11.05;;;3.90;21.40;;;;;;4973874;28;20196;-82
2023/12/07 02:43:32;;;;;;;11.50;10.60;;;3.90;27.60;;;;;;4971063;28;20200;-85
2023/12/07 02:46:02;;;;;;;11.48;10.68;;;3.90;8.20;;;;;;4973043;28;20227;-85
2023/12/07 02:48:31;;;;;;;11.50;10.60;;;3.90;1.00;;;;;;4974429;28;20235;-83
2023/12/07 02:50:59;;;;;;;11.30;10.40;;;3.90;1.00;;;;;;4973827;28;20192;-84
2023/12/07 02:53:27;;;;;;;11.48;10.45;;;3.90;6.90;;;;;;4973668;28;20235;-80
2023/12/07 02:55:55;;;;;;;11.88;11.00;;;3.90;8.40;;;;;;4975449;28;21011;-82
2023/12/07 02:58:23;;;;;;;10.60;10.00;;;3.90;1.00;;;;;;4970494;28;20231;-82
2023/12/07 03:00:51;;;;;;;11.95;11.10;;;3.90;1.00;;;;;;4975815;28;20216;-82
2023/12/07 03:03:21;;;;;;;11.15;10.45;;;3.90;1.00;;;;;;4971083;28;20262;-82
2023/12/07 03:05:49;;;;;;;11.65;11.05;;;3.90;1.00;;;;;;4972847;28;21162;-79
2023/12/07 03:08:18;;;;;;;11.82;10.98;;;3.90;1.00;;;;;;4972253;28;20212;-82
2023/12/07 03:10:46;;;;;;;11.55;10.98;;;4.00;1.00;;;;;;4976376;28;20218;-81
2023/12/07 03:13:14;;;;;;;10.85;10.32;;;4.00;1.00;;;;;;4971602;28;20737;-81
2023/12/07 03:15:42;;;;;;;11.57;10.77;;;4.00;1.00;;;;;;4974535;28;20218;-82
2023/12/07 03:18:10;;;;;;;11.02;10.43;;;3.90;1.00;;;;;;4967571;28;20223;-81
2023/12/07 03:20:40;;;;;;;10.88;10.23;;;3.90;1.00;;;;;;4972493;28;20199;-82
2023/12/07 03:23:08;;;;;;;12.18;11.38;;;3.80;1.00;;;;;;4972380;28;20200;-83
2023/12/07 03:25:36;;;;;;;11.38;10.65;;;3.80;1.00;;;;;;4969481;28;20205;-81
2023/12/07 03:28:05;;;;;;;11.10;10.32;;;3.90;1.00;;;;;;4970989;28;20227;-82
2023/12/07 03:30:33;;;;;;;10.75;10.05;;;3.80;1.00;;;;;;4972287;28;20250;-82
2023/12/07 03:33:01;;;;;;;11.10;10.40;;;3.90;1.00;;;;;;4970118;28;20219;-81
2023/12/07 03:35:29;;;;;;;10.40;9.90;;;3.70;1.00;;;;;;4977845;28;20865;-82
2023/12/07 03:37:59;;;;;;;11.38;10.68;;;3.70;1.00;;;;;;4975378;28;20219;-82
2023/12/07 03:40:27;;;;;;;11.63;11.00;;;3.70;1.00;;;;;;4976739;28;20216;-82
2023/12/07 03:42:56;;;;;;;10.95;10.13;;;3.70;1.00;;;;;;4974872;28;20732;-82
2023/12/07 03:45:24;;;;;;;12.18;11.35;;;3.70;1.00;;;;;;4974623;28;20215;-82
2023/12/07 03:47:52;;;;;;;10.82;9.93;;;3.80;1.00;;;;;;4976804;28;20235;-82
2023/12/07 03:50:21;;;;;;;11.20;10.60;;;3.70;1.00;;;;;;4972593;28;20224;-82
2023/12/07 03:52:49;;;;;;;10.55;9.95;;;3.60;1.00;;;;;;4975932;28;20218;-81
2023/12/07 03:55:18;;;;;;;11.05;10.13;;;3.60;1.00;;;;;;4975917;28;20684;-81
2023/12/07 03:57:47;;;;;;;11.23;10.52;;;3.40;1.00;;;;;;4975428;28;20792;-82
2023/12/07 04:00:15;;;;;;;11.27;10.65;;;3.40;1.00;;;;;;4976074;28;20298;-82
2023/12/07 04:02:43;;;;;;;10.65;9.95;;;3.50;1.00;;;;;;4977601;28;21142;-81
2023/12/07 04:05:12;;;;;;;10.98;10.20;;;3.50;1.00;;;;;;4975515;28;20251;-81
2023/12/07 04:07:41;;;;;;;11.52;10.73;;;3.40;1.00;;;;;;4976677;28;20227;-82
2023/12/07 04:10:10;;;;;;;11.00;10.30;;;3.50;1.00;;;;;;4979104;28;20300;-82
2023/12/07 04:12:40;;;;;;;10.88;10.25;;;3.50;1.00;;;;;;4975733;28;20220;-81
2023/12/07 04:15:09;;;;;;;10.57;9.93;;;3.50;1.00;;;;;;4976302;28;20548;-80
2023/12/07 04:17:37;;;;;;;10.77;10.07;;;3.50;1.00;;;;;;4977378;28;20244;-81
2023/12/07 04:20:07;;;;;;;11.45;10.65;;;3.40;1.00;;;;;;4974879;28;20235;-81
2023/12/07 04:22:35;;;;;;;10.57;10.07;;;3.40;1.00;;;;;;4977290;28;20203;-81
2023/12/07 04:25:04;;;;;;;11.20;10.25;;;3.40;1.00;;;;;;4975607;28;20246;-82
2023/12/07 04:27:32;;;;;;;10.50;9.60;;;3.30;1.00;;;;;;4970728;28;20219;-83
2023/12/07 04:30:03;;;;;;;10.85;10.20;;;3.10;1.00;;;;;;4976344;28;20294;-83
2023/12/07 04:32:31;;;;;;;10.23;9.50;;;3.10;1.00;;;;;;4975464;28;20204;-82
2023/12/07 04:35:00;;;;;;;10.10;9.50;;;3.10;1.00;;;;;;4976499;28;20579;-82
2023/12/07 04:37:28;;;;;;;11.07;10.15;;;3.10;1.00;;;;;;4978286;28;20239;-80
2023/12/07 04:39:56;;;;;;;11.90;11.07;;;3.20;1.00;;;;;;4976797;28;20208;-83
2023/12/07 04:42:24;;;;;;;11.05;10.45;;;3.20;1.00;;;;;;4978922;28;20208;-82
2023/12/07 04:44:52;;;;;;;11.02;10.23;;;3.20;1.00;;;;;;4977087;28;20195;-82
2023/12/07 04:47:23;;;;;;;9.90;9.20;;;3.20;1.00;;;;;;4974005;28;20265;-82
2023/12/07 04:49:51;;;;;;;10.95;10.25;;;3.20;1.00;;;;;;4980101;28;20204;-81
2023/12/07 04:52:20;;;;;;;10.35;9.65;;;3.20;1.00;;;;;;4978183;28;20231;-82
2023/12/07 04:54:49;;;;;;;11.43;10.63;;;3.20;1.00;;;;;;4979472;28;20220;-82
2023/12/07 04:57:17;;;;;;;10.40;9.70;;;3.20;1.00;;;;;;4975212;28;20227;-82
2023/12/07 04:59:46;;;;;;;10.50;9.90;;;3.10;1.00;;;;;;4978360;28;20205;-80
2023/12/07 05:02:16;;;;;;;11.18;10.43;;;3.00;1.00;;;;;;4974456;28;20227;-82
2023/12/07 05:04:46;;;;;;;10.30;9.63;;;2.90;1.00;;;;;;4975263;28;20204;-83
2023/12/07 05:07:15;;;;;;;10.80;10.25;;;2.90;1.00;;;;;;4976721;28;20227;-84
2023/12/07 05:09:43;;;;;;;11.75;10.95;;;2.80;1.00;;;;;;4976495;28;20251;-84
2023/12/07 05:12:11;;;;;;;11.45;10.65;;;2.80;1.00;;;;;;4972597;28;20413;-84
2023/12/07 05:14:39;;;;;;;10.52;9.93;;;2.80;1.00;;;;;;4974217;28;20238;-83
2023/12/07 05:17:07;;;;;;;12.05;11.23;;;2.70;1.00;;;;;;4979474;28;20235;-82
2023/12/07 05:19:36;;;;;;;11.88;11.20;;;2.70;1.00;;;;;;4981409;28;22503;-82
2023/12/07 05:22:06;;;;;;;12.02;11.25;;;2.60;1.00;;;;;;4978197;28;20196;-83
2023/12/07 05:24:35;;;;;;;10.80;10.02;;;2.70;7.40;;;;;;4976692;28;20200;-82
2023/12/07 05:27:04;;;;;;;11.00;10.30;;;2.70;22.90;;;;;;4976002;28;20229;-83
2023/12/07 05:29:32;;;;;;;11.52;10.82;;;2.70;1.00;;;;;;4972791;28;20200;-83
2023/12/07 05:32:00;;;;;;;11.70;10.90;;;2.70;1.00;;;;;;4973400;28;20224;-83
2023/12/07 05:34:28;;;;;;;11.75;11.00;;;2.70;1.00;;;;;;4975422;28;20307;-79
2023/12/07 05:36:56;;;;;;;12.43;10.80;;;2.70;22.60;;;;;;4974116;28;20294;-80
2023/12/07 05:39:26;;;;;;;12.18;11.40;;;2.70;1.00;;;;;;4976726;28;20203;-80
2023/12/07 05:41:54;;;;;;;12.10;11.30;;;2.70;1.00;;;;;;4975724;28;20214;-79
2023/12/07 05:44:23;;;;;;;12.27;11.40;;;2.80;36.40;;;;;;4978754;28;20187;-81
2023/12/07 05:46:51;;;;;;;13.20;12.02;;;2.90;47.80;;;;;;4972935;28;20200;-79
2023/12/07 05:49:19;;;;;;;12.45;11.50;;;2.80;1.00;;;;;;4977048;28;20207;-81
2023/12/07 05:51:48;;;;;;;12.32;11.40;;;2.80;1.00;;;;;;4973798;28;20752;-80
2023/12/07 05:54:17;;;;;;;12.52;11.70;;;2.80;21.10;;;;;;4975670;28;20234;-84
2023/12/07 05:56:46;;;;;;;12.70;11.90;;;2.80;32.20;;;;;;4974134;28;20294;-81
2023/12/07 05:59:15;;;;;;;11.88;11.18;;;2.80;40.90;;;;;;4978212;28;20206;-82
2023/12/07 06:01:43;;;;;;;13.30;12.20;;;2.80;12.00;;;;;;4975386;28;20219;-82
2023/12/07 06:04:12;;;;;;;12.50;11.60;;;2.70;1.00;;;;;;4976444;28;20196;-82
2023/12/07 06:06:41;;;;;;;12.43;11.63;;;2.80;23.20;;;;;;4973194;28;20196;-82
2023/12/07 06:09:10;;;;;;;12.93;11.90;;;2.70;1.00;;;;;;4977429;28;20776;-82
2023/12/07 06:11:38;;;;;;;13.63;12.55;;;2.70;1.00;;;;;;4974405;28;20200;-79
2023/12/07 06:14:08;;;;;;;12.75;11.95;;;2.70;1.00;;;;;;4979905;28;20220;-78
2023/12/07 06:16:36;;;;;;;12.70;11.80;;;2.70;1.00;;;;;;4979404;28;20211;-79
2023/12/07 06:19:05;;;;;;;12.77;11.65;;;2.70;1.00;;;;;;4978363;28;20239;-79
2023/12/07 06:21:33;;;;;;;12.45;11.55;;;2.70;1.00;;;;;;4973776;28;20658;-79
2023/12/07 06:24:01;;;;;;;11.18;10.48;;;2.70;1.00;;;;;;4973673;28;20210;-79
2023/12/07 06:26:29;;;;;;;11.27;10.68;;;2.70;1.00;;;;;;4975504;28;20283;-77
2023/12/07 06:28:58;;;;;;;11.02;10.40;;;2.70;1.00;;;;;;4973108;28;20345;-79
2023/12/07 06:31:27;;;;;;;12.02;11.20;;;2.60;1.00;;;;;;4973306;28;20215;-80
2023/12/07 06:33:56;;;;;;;12.57;11.68;;;2.70;1.00;;;;;;4974413;28;20238;-78
2023/12/07 06:36:25;;;;;;;11.10;10.43;;;2.80;1.00;;;;;;4975903;28;20208;-80
2023/12/07 06:38:54;;;;;;;12.23;11.23;;;2.80;1.00;;;;;;4978206;28;20310;-80
2023/12/07 06:41:23;;;;;;;13.82;12.68;;;2.80;1.00;;;;;;4979279;28;20238;-80
2023/12/07 06:43:51;;;;;;;11.52;10.63;;;2.70;1.00;;;;;;4976382;28;20203;-79
2023/12/07 06:46:21;;;;;;;12.80;12.00;;;2.70;1.00;;;;;;4975761;28;20219;-79
2023/12/07 06:48:51;;;;;;;13.40;12.25;;;2.70;1.00;;;;;;4973583;28;20235;-79
2023/12/07 06:51:19;;;;;;;12.80;11.63;;;2.70;1.00;;;;;;4973654;28;21028;-80
2023/12/07 06:53:47;;;;;;;14.05;12.85;;;2.70;1.00;;;;;;4969239;28;20285;-79
2023/12/07 06:56:16;;;;;;;14.70;13.25;;;2.60;1.00;;;;;;4974875;28;20279;-79
2023/12/07 06:58:44;;;;;;;12.65;11.82;;;2.60;1.00;;;;;;4973191;28;20223;-79
2023/12/07 07:01:12;;;;;;;13.10;12.18;;;2.50;1.00;;;;;;4976625;28;20207;-78
2023/12/07 07:03:41;;;;;;;12.50;11.50;;;2.50;1.00;;;;;;4973576;28;20208;-79
2023/12/07 07:06:10;;;;;;;12.35;11.40;;;2.60;1.00;;;;;;4970384;28;20239;-78
2023/12/07 07:08:39;;;;;;;11.75;10.70;;;2.50;1.00;;;;;;4973694;28;20799;-78
2023/12/07 07:11:14;;;;;;;12.10;11.10;;;2.50;1.00;;;;;;4979443;28;20203;-78
2023/12/07 07:13:42;;;;;;;12.85;11.80;;;2.40;1.00;;;;;;4977889;28;20204;-79
2023/12/07 07:16:10;;;;;;;13.75;12.65;;;2.50;1.00;;;;;;4975352;28;20460;-79
2023/12/07 07:18:39;;;;;;;13.07;12.07;;;2.40;1.00;;;;;;4978717;28;20224;-80
2023/12/07 07:21:08;;;;;;;14.35;12.85;;;2.50;1.00;;;;;;4977690;28;20200;-79
2023/12/07 07:23:38;;;;;;;15.68;14.27;;;2.40;1.00;;;;;;4972615;28;20197;-79
2023/12/07 07:26:06;;;;;;;16.63;15.02;;;2.40;1.00;;;;;;4976922;28;20251;-79
2023/12/07 07:28:34;;;;;;;14.63;13.48;;;2.40;1.00;;;;;;4974867;28;20227;-79
2023/12/07 07:31:03;;;;;;;16.65;15.00;;;2.40;1.00;;;;;;4978361;28;20259;-79
2023/12/07 07:33:32;;;;;;;18.60;16.33;;;2.40;1.00;;;;;;4978996;28;20208;-80
2023/12/07 07:36:00;;;;;;;17.02;15.07;;;2.40;1.00;;;;;;4976390;28;20220;-79
2023/12/07 07:38:29;;;;;;;20.88;17.20;;;2.40;1.00;;;;;;4976586;28;20228;-80
2023/12/07 07:40:58;;;;;;;21.15;18.60;;;2.40;1.00;;;;;;4976274;28;20203;-79
2023/12/07 07:43:26;;;;;;;27.52;21.60;;;2.40;1.00;;;;;;4977745;28;20197;-79
2023/12/07 07:45:55;;;;;;;32.30;24.05;;;2.50;1.00;;;;;;4981022;28;20316;-79
2023/12/07 07:48:23;;;;;;;33.05;23.70;;;2.50;1.00;;;;;;4978880;28;20232;-80
2023/12/07 07:50:51;;;;;;;27.50;22.63;;;2.50;1.00;;;;;;4978159;28;21246;-79
2023/12/07 07:53:20;;;;;;;18.90;16.85;;;2.50;1.00;;;;;;4976013;28;20201;-79
2023/12/07 07:55:48;;;;;;;15.77;14.38;;;2.50;1.00;;;;;;4977087;28;20243;-78
2023/12/07 07:58:18;;;;;;;13.88;12.55;;;2.50;1.00;;;;;;4974799;28;20223;-78
2023/12/07 08:00:46;;;;;;;15.80;14.40;;;2.50;1.00;;;;;;4976198;28;20457;-79
2023/12/07 08:03:15;;;;;;;13.27;12.18;;;2.30;1.00;;;;;;4979638;28;20314;-79
2023/12/07 08:05:43;;;;;;;13.75;12.75;;;2.50;1.00;;;;;;4980003;28;20204;-79
2023/12/07 08:08:11;;;;;;;13.15;12.10;;;2.60;1.00;;;;;;4977824;28;20282;-79
2023/12/07 08:10:39;;;;;;;13.52;12.43;;;2.80;1.00;;;;;;4976637;28;20200;-79
2023/12/07 08:13:24;;;;;;;13.95;12.50;;;2.90;1.00;;;;;;4980156;28;20195;-79
2023/12/07 08:15:53;;;;;;;14.35;13.10;;;3.10;1.00;;;;;;4974838;28;20221;-79
2023/12/07 08:18:25;;;;;;;13.68;12.55;;;3.30;1.00;;;;;;4975684;28;20232;-78
2023/12/07 08:20:54;;;;;;;13.98;12.85;;;3.30;1.00;;;;;;4976908;28;20212;-79
2023/12/07 08:23:22;;;;;;;13.57;12.50;;;3.40;1.00;;;;;;4974245;28;20214;-78
2023/12/07 08:25:51;;;;;;;14.98;13.68;;;3.50;1.00;;;;;;4974892;28;20397;-78
2023/12/07 08:28:19;;;;;;;14.48;13.40;;;3.50;1.00;;;;;;4977301;28;20730;-79
2023/12/07 08:30:49;;;;;;;15.63;14.23;;;3.60;1.00;;;;;;4978118;28;20239;-79
2023/12/07 08:33:18;;;;;;;15.25;14.25;;;3.60;1.00;;;;;;4976153;28;20287;-79
2023/12/07 08:35:48;;;;;;;14.95;13.90;;;3.60;1.00;;;;;;4975022;28;20216;-78
2023/12/07 08:38:17;;;;;;;14.35;13.40;;;3.70;1.00;;;;;;4972837;28;20287;-79
2023/12/07 08:40:45;;;;;;;15.52;14.38;;;3.80;1.00;;;;;;4975936;28;20857;-79
2023/12/07 08:43:13;;;;;;;15.55;14.20;;;3.90;1.00;;;;;;4977546;28;20561;-78
2023/12/07 08:45:42;;;;;;;15.85;14.82;;;3.90;1.00;;;;;;4975838;28;20195;-79
2023/12/07 08:48:11;;;;;;;15.27;13.63;;;3.90;1.00;;;;;;4977607;28;20239;-78
2023/12/07 08:50:40;;;;;;;14.77;13.68;;;3.90;1.00;;;;;;4977089;28;20251;-79
2023/12/07 08:53:08;;;;;;;15.77;14.50;;;3.90;1.00;;;;;;4976896;28;20227;-79
2023/12/07 08:55:37;;;;;;;15.45;14.35;;;4.10;1.00;;;;;;4976518;28;20228;-79
2023/12/07 08:58:05;;;;;;;15.27;14.23;;;4.10;1.00;;;;;;4973482;28;20220;-79
2023/12/07 09:00:34;;;;;;;15.68;14.45;;;4.00;1.00;;;;;;4977762;28;20337;-79
2023/12/07 09:03:02;;;;;;;13.70;12.80;;;4.10;1.00;;;;;;4977508;28;20299;-79
2023/12/07 09:05:32;;;;;;;15.93;14.52;;;4.20;1.00;;;;;;4978062;28;20195;-78
2023/12/07 09:08:01;;;;;;;14.70;13.60;;;4.20;1.00;;;;;;4990235;28;20431;-79
2023/12/07 09:10:29;;;;;;;13.73;12.75;;;4.20;1.00;;;;;;4976847;28;20211;-79
2023/12/07 09:12:57;;;;;;;14.40;13.02;;;4.30;1.00;;;;;;4974720;28;20200;-78
2023/12/07 09:15:25;;;;;;;12.98;12.18;;;4.30;1.00;;;;;;4978770;28;20218;-79
2023/12/07 09:17:53;;;;;;;14.30;13.25;;;4.40;1.00;;;;;;4977497;28;20238;-80
2023/12/07 09:20:22;;;;;;;14.75;13.55;;;4.40;1.00;;;;;;4976211;28;20748;-79
2023/12/07 09:22:53;;;;;;;15.02;13.93;;;4.60;1.00;;;;;;4973931;28;20207;-79
2023/12/07 09:25:21;;;;;;;14.30;13.40;;;4.80;1.00;;;;;;4979052;28;20196;-79
2023/12/07 09:27:51;;;;;;;13.15;11.88;;;5.00;1.00;;;;;;4977756;28;20227;-79
2023/12/07 09:30:19;;;;;;;12.03;11.33;;;5.20;1.00;;;;;;4977681;28;20207;-79
2023/12/07 09:32:47;;;;;;;12.30;11.47;;;5.30;99.90;;;;;;4976796;28;20816;-79
2023/12/07 09:35:18;;;;;;;12.63;11.73;;;5.80;99.90;;;;;;4975525;28;20443;-79
2023/12/07 09:37:50;;;;;;;12.00;11.30;;;6.00;99.90;;;;;;4976768;28;20474;-79
2023/12/07 09:40:20;;;;;;;11.67;11.07;;;6.30;99.90;;;;;;4973833;28;20825;-79
2023/12/07 09:42:50;;;;;;;11.33;10.73;;;6.50;99.90;;;;;;4974617;28;20532;-78
2023/12/07 09:45:19;;;;;;;11.03;10.33;;;6.80;99.90;;;;;;4976876;28;20476;-79
2023/12/07 09:47:50;;;;;;;9.40;8.93;;;7.10;99.90;;;;;;4977335;28;20475;-79
2023/12/07 09:50:22;;;;;;;9.70;9.20;;;7.20;99.90;;;;;;4977427;28;20440;-78
2023/12/07 09:52:53;;;;;;;8.60;8.20;;;7.40;99.90;;;;;;4974612;28;20463;-79
2023/12/07 09:55:35;;;;;;;8.50;8.20;;;7.80;99.90;;;;;;4977436;28;20486;-79
2023/12/07 09:58:05;;;;;;;8.00;7.70;;;8.50;99.90;;;;;;4974938;28;20482;-78
2023/12/07 10:00:36;;;;;;;7.90;7.30;;;9.30;99.90;;;;;;4975592;28;20455;-79
2023/12/07 10:03:07;;;;;;;8.37;7.77;;;9.80;99.90;;;;;;4977106;28;20462;-78
2023/12/07 10:05:55;;;;;;;8.10;7.80;;;10.60;99.90;;;;;;4973683;28;20474;-77
2023/12/07 10:08:29;;;;;;;6.77;6.50;;;10.70;99.90;;;;;;4975114;28;21094;-79
2023/12/07 10:11:05;;;;;;;7.33;7.03;;;11.20;97.00;;;;;;4973800;28;21087;-78
2023/12/07 10:13:34;;;;;;;6.87;6.63;;;11.20;94.40;;;;;;4975850;28;21434;-79
2023/12/07 10:16:11;;;;;;;7.10;6.80;;;10.60;85.90;;;;;;4975034;28;20506;-79
2023/12/07 10:18:40;;;;;;;6.77;6.47;;;10.90;86.80;;;;;;4973406;28;20478;-79
2023/12/07 10:21:12;;;;;;;6.50;6.23;;;12.20;98.90;;;;;;4976009;28;20455;-79
2023/12/07 10:23:46;;;;;;;6.63;6.33;;;12.60;89.50;;;;;;4973351;28;20462;-79
2023/12/07 10:26:19;;;;;;;8.27;7.57;;;12.60;88.20;;;;;;4978377;28;20545;-79
2023/12/07 10:28:52;;;;;;;6.67;6.20;;;12.60;84.80;;;;;;4976223;28;20494;-79
2023/12/07 10:31:22;;;;;;;7.50;7.00;;;12.20;75.20;;;;;;4976012;28;20450;-79
2023/12/07 10:33:53;;;;;;;6.97;6.57;;;11.40;65.60;;;;;;4975402;28;21007;-79
2023/12/07 10:36:22;;;;;;;7.83;7.33;;;11.90;75.20;;;;;;4973819;28;20545;-79
2023/12/07 10:38:52;;;;;;;7.63;7.23;;;11.90;75.00;;;;;;4974943;28;22673;-79
2023/12/07 10:41:21;;;;;;;7.83;7.43;;;11.70;71.10;;;;;;4976035;28;20466;-79
2023/12/07 10:43:52;;;;;;;6.67;6.37;;;11.60;68.00;;;;;;4978881;28;20491;-78
2023/12/07 10:46:22;;;;;;;7.60;7.20;;;11.50;67.20;;;;;;4980822;28;21023;-79
2023/12/07 10:48:57;;;;;;;7.30;6.90;;;11.40;65.20;;;;;;4979007;28;20490;-79
2023/12/07 10:51:32;;;;;;;7.27;6.90;;;10.50;52.90;;;;;;4978839;28;20450;-79
2023/12/07 10:54:04;;;;;;;7.40;7.10;;;10.20;52.00;;;;;;4979107;28;20454;-79
2023/12/07 10:56:41;;;;;;;7.47;7.07;;;10.10;52.20;;;;;;4978713;28;20463;-78
2023/12/07 10:59:11;;;;;;;8.83;8.30;;;10.00;53.20;;;;;;4977593;28;21381;-78
2023/12/07 11:01:49;;;;;;;7.80;7.40;;;10.10;53.30;;;;;;4982066;28;20465;-79
2023/12/07 11:04:18;;;;;;;7.80;7.40;;;10.00;55.20;;;;;;4981574;28;21161;-78
2023/12/07 11:06:51;;;;;;;7.67;7.10;;;9.80;53.20;;;;;;4978109;28;20481;-77
2023/12/07 11:09:26;;;;;;;7.43;7.03;;;9.90;54.60;;;;;;4980530;28;20502;-79
2023/12/07 11:12:03;;;;;;;8.10;7.50;;;10.10;56.90;;;;;;4977017;28;20473;-79
2023/12/07 11:14:31;;;;;;;7.30;6.97;;;10.50;63.20;;;;;;4979379;28;20476;-79
2023/12/07 11:16:59;;;;;;;7.90;7.50;;;10.40;59.60;;;;;;4977598;28;20586;-79
2023/12/07 11:19:48;;;;;;;7.30;6.90;;;10.20;76.20;;;;;;4979489;28;20546;-79
2023/12/07 11:22:16;;;;;;;6.50;6.20;;;9.80;53.70;;;;;;4980062;28;21302;-79
2023/12/07 11:24:57;;;;;;;7.23;6.93;;;9.30;44.70;;;;;;4971918;28;20455;-78
2023/12/07 11:27:26;;;;;;;7.93;7.43;;;9.30;45.90;;;;;;4977499;28;20492;-79
2023/12/07 11:29:54;;;;;;;7.70;7.20;;;9.20;47.80;;;;;;4979099;28;20520;-79
2023/12/07 11:32:23;;;;;;;7.37;6.97;;;9.30;50.00;;;;;;4976810;28;20470;-79
2023/12/07 11:35:03;;;;;;;7.90;7.50;;;9.20;51.20;;;;;;4977268;28;20438;-79
2023/12/07 11:38:05;;;;;;;9.20;8.70;;;9.40;53.10;;;;;;4977987;28;20486;-79
2023/12/07 11:40:37;;;;;;;6.57;6.27;;;9.30;50.70;;;;;;4977042;28;20450;-79
2023/12/07 11:43:06;;;;;;;6.60;6.30;;;8.90;41.30;;;;;;4976137;28;20463;-78
2023/12/07 11:45:39;;;;;;;6.63;6.30;;;8.90;44.50;;;;;;4977902;28;20994;-79
2023/12/07 11:48:11;;;;;;;7.57;7.03;;;9.00;43.30;;;;;;4978479;28;20455;-79
2023/12/07 11:50:59;;;;;;;6.77;6.50;;;9.00;45.60;;;;;;4975854;28;20451;-79
2023/12/07 11:53:29;;;;;;;6.90;6.60;;;9.00;47.00;;;;;;4977050;28;20448;-79
2023/12/07 11:56:00;;;;;;;6.63;6.43;;;8.90;45.70;;;;;;4976842;28;20963;-78
2023/12/07 11:58:30;;;;;;;6.67;6.37;;;8.90;46.20;;;;;;4973535;28;20493;-79
2023/12/07 12:01:01;;;;;;;7.70;7.30;;;8.90;45.40;;;;;;4973512;28;20469;-79
2023/12/07 12:03:32;;;;;;;6.90;6.50;;;8.90;60.00;;;;;;4975154;28;20474;-79
2023/12/07 12:06:00;;;;;;;6.67;6.37;;;8.80;42.40;;;;;;4974330;28;20491;-79
2023/12/07 12:08:28;;;;;;;6.50;6.10;;;8.70;41.80;;;;;;4977033;28;21180;-79
2023/12/07 12:10:57;;;;;;;5.80;5.60;;;8.70;42.80;;;;;;4975099;28;20602;-79
2023/12/07 12:13:31;;;;;;;5.90;5.70;;;8.70;56.30;;;;;;4972615;28;20471;-78
2023/12/07 12:15:59;;;;;;;6.23;5.93;;;8.60;39.30;;;;;;4977527;28;20810;-80
2023/12/07 12:18:32;;;;;;;5.93;5.63;;;8.60;44.20;;;;;;4980144;28;20487;-80
2023/12/07 12:21:01;;;;;;;5.97;5.57;;;8.60;38.60;;;;;;4974043;28;20473;-79
2023/12/07 12:23:29;;;;;;;5.30;5.00;;;8.60;38.90;;;;;;4972455;28;21068;-78
2023/12/07 12:25:59;;;;;;;5.27;5.07;;;8.80;38.90;;;;;;4973130;28;21965;-79
2023/12/07 12:28:27;;;;;;;5.10;4.90;;;8.70;35.30;;;;;;4977343;28;20475;-79
2023/12/07 12:30:57;;;;;;;5.20;5.00;;;8.70;36.30;;;;;;4976494;28;20540;-82
2023/12/07 12:33:25;;;;;;;5.07;4.87;;;8.70;36.50;;;;;;4978197;28;20470;-81
2023/12/07 12:36:03;;;;;;;5.70;5.50;;;8.70;35.80;;;;;;4978811;28;20447;-82
2023/12/07 12:38:31;;;;;;;5.50;5.20;;;8.50;32.50;;;;;;4976622;28;20580;-83
2023/12/07 12:41:10;;;;;;;6.63;6.33;;;8.20;29.30;;;;;;4978647;28;20807;-80
2023/12/07 12:43:38;;;;;;;6.43;6.13;;;8.30;30.80;;;;;;4977617;28;20490;-80
2023/12/07 12:46:08;;;;;;;5.70;5.40;;;8.40;32.40;;;;;;4978684;28;20462;-80
2023/12/07 12:48:37;;;;;;;5.80;5.60;;;8.40;31.90;;;;;;4973238;28;20494;-79
2023/12/07 12:51:14;;;;;;;5.80;5.60;;;8.30;30.60;;;;;;4977423;28;20444;-80
2023/12/07 12:53:45;;;;;;;6.23;5.70;;;8.10;27.80;;;;;;4972366;28;20516;-79
2023/12/07 12:56:16;;;;;;;6.00;5.60;;;8.00;27.10;;;;;;4974331;28;20455;-80
2023/12/07 12:58:45;;;;;;;5.87;5.57;;;7.80;25.50;;;;;;4973843;28;21229;-79
2023/12/07 13:01:17;;;;;;;6.53;6.23;;;7.80;26.70;;;;;;4977255;28;20951;-80